Tohshi — 3EJO5 — position and weather

sailwx.info

Track history (hours):
 
Tides and Currents Weather Stations Pressure Air Temp Water Temp Dewpoint Dewpoint Depression Visibility Wind Speed Wind Dir Waves Ship Positions

Tohshi

Last reported at 2015-Jul-30 01:23 UTC. Time now 2015-Jul-31 11:25 UTC.
Position N 33°57' E 134°58'.

Length 333 m; beam 60 m.

Type: Tanker. MMSI: 372582000.

Date/timePositionNaut miles runAvg speedWind from/ knotsBaromVisibWave heightAir tempDewpointWater temp
2015-Jul-30 01:23N 33°57' E 134°58'1214.1
2015-Jul-30 00:33N 34°08' E 135°03'3 2.8
2015-Jul-29 23:32N 34°07' E 135°07'0 0.0
2015-Jul-29 22:32N 34°07' E 135°07'0 0.0
2015-Jul-29 21:32N 34°07' E 135°07'0 0.0
2015-Jul-29 20:26N 34°07' E 135°07'0 0.0
2015-Jul-29 19:32N 34°07' E 135°07'0 0.0
2015-Jul-29 17:32N 34°07' E 135°07'0 0.0
2015-Jul-29 16:32N 34°07' E 135°07'0 0.0
2015-Jul-29 15:32N 34°07' E 135°07'0 0.0
2015-Jul-29 14:26N 34°07' E 135°07'0 0.0
2015-Jul-29 11:26N 34°07' E 135°07'0 0.0
2015-Jul-29 03:26N 34°07' E 135°07'0 0.0
2015-Jul-29 00:20N 34°07' E 135°07'0 0.0
2015-Jul-28 21:32N 34°07' E 135°07'0 0.0
2015-Jul-28 19:32N 34°07' E 135°07'0 0.0
2015-Jul-28 02:11N 34°07' E 135°07'1 1.0
2015-Jul-28 01:32N 34°07' E 135°06'2 1.5
2015-Jul-28 00:31N 34°09' E 135°05'0 0.0
2015-Jul-27 23:31N 34°09' E 135°05'0 0.1
2015-Jul-27 22:31N 34°09' E 135°05'0 0.0
2015-Jul-27 21:33N 34°09' E 135°05'1 0.6
2015-Jul-27 20:33N 34°09' E 135°05'6 5.8
2015-Jul-27 19:33N 34°03' E 135°02'10 8.6
2015-Jul-27 18:25N 33°54' E 134°59'  
2015-Jul-23 14:33N 21°04' E 120°27'1515.2
2015-Jul-23 13:33N 20°52' E 120°16'3515.2
2015-Jul-23 11:14N 20°25' E 119°52'  
Track history (hours):
 
Tides and Currents Weather Stations Pressure Air Temp Water Temp Dewpoint Dewpoint Depression Visibility Wind Speed Wind Dir Waves Ship Positions

Tohshi

Last reported at 2015-Jul-30 01:23 UTC. Time now 2015-Jul-31 11:25 UTC.
Position N 33°57' E 134°58'.

Length 333 m; beam 60 m.

Type: Tanker. MMSI: 372582000.

Date/timePositionNaut miles runAvg speedWind from/ knotsBaromVisibWave heightAir tempDewpointWater temp
2015-Jul-30 01:23N 33°57' E 134°58'1214.1
2015-Jul-30 00:33N 34°08' E 135°03'3 2.8
2015-Jul-29 23:32N 34°07' E 135°07'0 0.0
2015-Jul-29 22:32N 34°07' E 135°07'0 0.0
2015-Jul-29 21:32N 34°07' E 135°07'0 0.0
2015-Jul-29 20:26N 34°07' E 135°07'0 0.0
2015-Jul-29 19:32N 34°07' E 135°07'0 0.0
2015-Jul-29 17:32N 34°07' E 135°07'0 0.0
2015-Jul-29 16:32N 34°07' E 135°07'0 0.0
2015-Jul-29 15:32N 34°07' E 135°07'0 0.0
2015-Jul-29 14:26N 34°07' E 135°07'0 0.0
2015-Jul-29 11:26N 34°07' E 135°07'0 0.0
2015-Jul-29 03:26N 34°07' E 135°07'0 0.0
2015-Jul-29 00:20N 34°07' E 135°07'0 0.0
2015-Jul-28 21:32N 34°07' E 135°07'0 0.0
2015-Jul-28 19:32N 34°07' E 135°07'0 0.0
2015-Jul-28 02:11N 34°07' E 135°07'1 1.0
2015-Jul-28 01:32N 34°07' E 135°06'2 1.5
2015-Jul-28 00:31N 34°09' E 135°05'0 0.0
2015-Jul-27 23:31N 34°09' E 135°05'0 0.1
2015-Jul-27 22:31N 34°09' E 135°05'0 0.0
2015-Jul-27 21:33N 34°09' E 135°05'1 0.6
2015-Jul-27 20:33N 34°09' E 135°05'6 5.8
2015-Jul-27 19:33N 34°03' E 135°02'10 8.6
2015-Jul-27 18:25N 33°54' E 134°59'  
2015-Jul-23 14:33N 21°04' E 120°27'1515.2
2015-Jul-23 13:33N 20°52' E 120°16'3515.2
2015-Jul-23 11:14N 20°25' E 119°52'  

Dump ship's entire track history